Schneifelwetter: Wetterstation Hallschlag, 537 m . NN
Wetterdaten: Donnerstag, 17.11.2011
Datum Zeit Temp. A. Feuchte A. Luftdruck Regen Wind Richtung Richtung Sonnenschein Helligkeit T Regen Taupunkt Windchill
17.11.2011 00:01 -2,7 C 93 % 1018 hPa 0,0 l/m 12,1 km/h (2 Bft) W-SW22.5 255 0 min 0 lux 0 min -3,7 C -8,2 C
17.11.2011 00:16 -2,6 C 94 % 1018 hPa 0,0 l/m 14,1 km/h (3 Bft) W-SW22.5 250 0 min 0 lux 0 min -3,4 C -9,5 C
17.11.2011 00:31 -2,6 C 94 % 1018 hPa 0,0 l/m 11,8 km/h (2 Bft) W-SW22.5 250 0 min 0 lux 0 min -3,4 C -7,8 C
17.11.2011 00:46 -2,5 C 94 % 1018 hPa 0,0 l/m 11,2 km/h (2 Bft) SW22.5 230 0 min 0 lux 0 min -3,3 C -7,2 C
17.11.2011 01:01 -2,3 C 94 % 1018 hPa 0,0 l/m 8,6 km/h (2 Bft) W-SW22.5 250 0 min 0 lux 0 min -3,1 C -4,7 C
17.11.2011 01:16 -2,2 C 94 % 1018 hPa 0,0 l/m 10,7 km/h (2 Bft) W-SW22.5 240 0 min 0 lux 0 min -3,0 C -6,5 C
17.11.2011 01:31 -2,2 C 95 % 1018 hPa 0,0 l/m 12,6 km/h (3 Bft) SW22.5 235 0 min 0 lux 0 min -2,9 C -8,0 C
17.11.2011 01:45 -2,2 C 95 % 1018 hPa 0,0 l/m 12,3 km/h (3 Bft) W-SW22.5 255 0 min 0 lux 0 min -2,9 C -7,8 C
17.11.2011 02:00 -2,1 C 95 % 1018 hPa 0,0 l/m 13,4 km/h (3 Bft) W22.5 260 0 min 0 lux 0 min -2,8 C -8,5 C
17.11.2011 02:15 -2,1 C 95 % 1018 hPa 0,0 l/m 12,2 km/h (2 Bft) W22.5 260 0 min 0 lux 0 min -2,8 C -7,6 C
17.11.2011 02:30 -2,1 C 95 % 1018 hPa 0,0 l/m 11,7 km/h (2 Bft) W-SW22.5 255 0 min 0 lux 0 min -2,8 C -7,2 C
17.11.2011 02:45 -2,1 C 95 % 1018 hPa 0,0 l/m 15,7 km/h (3 Bft) W-SW22.5 255 0 min 0 lux 0 min -2,8 C -10,0 C
17.11.2011 03:00 -2,2 C 95 % 1018 hPa 0,0 l/m 16,8 km/h (3 Bft) W-SW22.5 250 0 min 0 lux 0 min -2,9 C -10,7 C
17.11.2011 03:15 -2,2 C 95 % 1018 hPa 0,0 l/m 16,3 km/h (3 Bft) W-SW22.5 255 0 min 0 lux 0 min -2,9 C -10,5 C
17.11.2011 03:30 -2,1 C 96 % 1018 hPa 0,0 l/m 16,0 km/h (3 Bft) W22.5 260 0 min 0 lux 0 min -2,6 C -10,1 C
17.11.2011 03:45 -2,1 C 96 % 1018 hPa 0,0 l/m 16,3 km/h (3 Bft) W-SW22.5 250 0 min 0 lux 0 min -2,6 C -10,3 C
17.11.2011 04:00 -2,0 C 96 % 1018 hPa 0,0 l/m 14,1 km/h (3 Bft) W-SW22.5 255 0 min 0 lux 0 min -2,6 C -8,8 C
17.11.2011 04:15 -2,0 C 96 % 1018 hPa 0,0 l/m 12,1 km/h (2 Bft) W-SW22.5 250 0 min 0 lux 0 min -2,6 C -7,4 C
17.11.2011 04:30 -1,9 C 96 % 1018 hPa 0,0 l/m 14,4 km/h (3 Bft) W45 260 0 min 0 lux 0 min -2,5 C -8,9 C
17.11.2011 04:45 -1,8 C 96 % 1018 hPa 0,0 l/m 13,8 km/h (3 Bft) W-SW22.5 255 0 min 0 lux 0 min -2,4 C -8,4 C
17.11.2011 05:00 -1,8 C 96 % 1018 hPa 0,0 l/m 14,5 km/h (3 Bft) W-SW45 250 0 min 0 lux 0 min -2,4 C -8,8 C
17.11.2011 05:15 -1,8 C 96 % 1018 hPa 0,0 l/m 9,2 km/h (2 Bft) SW45 225 0 min 0 lux 0 min -2,4 C -4,7 C
17.11.2011 05:30 -1,8 C 96 % 1019 hPa 0,0 l/m 10,4 km/h (2 Bft) SW22.5 225 0 min 0 lux 0 min -2,4 C -5,8 C
17.11.2011 05:45 -1,8 C 96 % 1019 hPa 0,0 l/m 7,1 km/h (2 Bft) SW22.5 225 0 min 0 lux 0 min -2,4 C -2,6 C
17.11.2011 06:00 -1,7 C 96 % 1019 hPa 0,0 l/m 13,6 km/h (3 Bft) SW45 230 0 min 0 lux 0 min -2,3 C -8,1 C
17.11.2011 06:15 -1,6 C 97 % 1019 hPa 0,0 l/m 8,8 km/h (2 Bft) SW22.5 235 0 min 0 lux 0 min -2,0 C -4,1 C
17.11.2011 06:30 -1,6 C 97 % 1019 hPa 0,0 l/m 10,3 km/h (2 Bft) SW22.5 235 0 min 0 lux 0 min -2,0 C -5,5 C
17.11.2011 06:45 -1,5 C 97 % 1019 hPa 0,0 l/m 12,0 km/h (2 Bft) W-SW45 240 0 min 0 lux 0 min -1,9 C -6,7 C
17.11.2011 07:00 -1,5 C 97 % 1019 hPa 0,0 l/m 11,3 km/h (2 Bft) W-SW22.5 240 0 min 0 lux 0 min -1,9 C -6,2 C
17.11.2011 07:15 -1,5 C 97 % 1019 hPa 0,0 l/m 5,9 km/h (2 Bft) W-SW 240 0 min 0 lux 0 min -1,9 C -1,5 C
17.11.2011 07:30 -1,5 C 97 % 1019 hPa 0,0 l/m 7,0 km/h (2 Bft) SW 230 0 min 75 lux 0 min -1,9 C -2,1 C
17.11.2011 07:45 -1,5 C 97 % 1019 hPa 0,0 l/m 5,4 km/h (1 Bft) W-SW 245 0 min 263 lux 0 min -1,9 C -1,5 C
17.11.2011 08:00 -1,7 C 96 % 1019 hPa 0,0 l/m 5,5 km/h (1 Bft) W-SW 245 0 min 872 lux 0 min -2,3 C -1,7 C
17.11.2011 08:16 -1,8 C 96 % 1020 hPa 0,0 l/m 11,9 km/h (2 Bft) W-SW 255 0 min 2,61 klux 0 min -2,4 C -7,0 C
17.11.2011 08:30 -1,8 C 96 % 1020 hPa 0,0 l/m 7,9 km/h (2 Bft) W-SW 255 0 min 4,31 klux 0 min -2,4 C -3,4 C
17.11.2011 08:45 -1,6 C 97 % 1020 hPa 0,0 l/m 2,5 km/h (1 Bft) W-SW 245 0 min 9,7 klux 0 min -2,0 C -1,6 C
17.11.2011 09:00 -1,1 C 97 % 1020 hPa 0,0 l/m 0,0 km/h (0 Bft) W-SW 245 0 min 14,6 klux 0 min -1,5 C -1,1 C
17.11.2011 09:15 -0,7 C 97 % 1020 hPa 0,0 l/m 0,0 km/h (0 Bft) W-SW 245 0 min 9,1 klux 0 min -1,1 C -0,7 C
17.11.2011 09:30 -0,4 C 97 % 1020 hPa 0,0 l/m 0,0 km/h (0 Bft) W-SW 245 0 min 19,5 klux 0 min -0,8 C -0,4 C
17.11.2011 09:46 0,2 C 97 % 1020 hPa 0,0 l/m 0,1 km/h (0 Bft) W-SW 245 0 min 21,7 klux 0 min -0,2 C 0,2 C
17.11.2011 10:00 0,8 C 97 % 1020 hPa 0,0 l/m 4,6 km/h (1 Bft) W-SW 245 0 min 13,4 klux 0 min 0,4 C 0,8 C
17.11.2011 10:15 1,3 C 97 % 1020 hPa 0,0 l/m 0,0 km/h (0 Bft) W-SW 245 0 min 12,2 klux 0 min 0,9 C 1,3 C
17.11.2011 10:30 1,8 C 97 % 1020 hPa 0,0 l/m 4,3 km/h (1 Bft) W-SW 245 0 min 10,0 klux 0 min 1,4 C 1,8 C
17.11.2011 10:45 2,3 C 97 % 1020 hPa 0,0 l/m 0,6 km/h (0 Bft) W-SW 240 0 min 10,0 klux 0 min 1,9 C 2,3 C
17.11.2011 11:00 2,7 C 97 % 1020 hPa 0,0 l/m 0,6 km/h (0 Bft) W-SW 245 0 min 10,2 klux 0 min 2,3 C 2,7 C
17.11.2011 11:16 3,0 C 97 % 1020 hPa 0,0 l/m 1,0 km/h (0 Bft) W-SW 245 0 min 9,8 klux 0 min 2,6 C 3,0 C
17.11.2011 11:30 3,1 C 96 % 1020 hPa 0,0 l/m 7,4 km/h (2 Bft) W-SW 245 0 min 8,72 klux 0 min 2,5 C 2,2 C
17.11.2011 11:45 3,2 C 96 % 1020 hPa 0,0 l/m 10,3 km/h (2 Bft) W-SW 250 0 min 8,51 klux 0 min 2,6 C -0,1 C
17.11.2011 12:00 3,4 C 96 % 1020 hPa 0,0 l/m 7,0 km/h (2 Bft) W-SW 250 0 min 8,90 klux 0 min 2,8 C 2,8 C
17.11.2011 12:15 3,6 C 96 % 1020 hPa 0,0 l/m 11,1 km/h (2 Bft) W-SW 250 0 min 7,68 klux 0 min 3,0 C -0,3 C
17.11.2011 12:30 3,8 C 95 % 1020 hPa 0,0 l/m 9,0 km/h (2 Bft) W-SW 250 0 min 8,20 klux 0 min 3,1 C 1,5 C
17.11.2011 12:46 3,9 C 95 % 1020 hPa 0,0 l/m 9,6 km/h (2 Bft) W-SW 250 0 min 9,9 klux 0 min 3,2 C 1,2 C
17.11.2011 13:00 4,1 C 94 % 1020 hPa 0,0 l/m 10,8 km/h (2 Bft) W-SW 255 0 min 10,2 klux 0 min 3,2 C 0,5 C
17.11.2011 13:15 4,3 C 94 % 1020 hPa 0,0 l/m 9,2 km/h (2 Bft) W-SW 250 0 min 9,3 klux 0 min 3,4 C 1,9 C
17.11.2011 13:30 4,5 C 93 % 1020 hPa 0,0 l/m 7,9 km/h (2 Bft) W-SW 250 0 min 8,69 klux 0 min 3,5 C 3,2 C
17.11.2011 13:45 4,6 C 93 % 1020 hPa 0,0 l/m 6,7 km/h (2 Bft) W-SW 250 0 min 7,50 klux 0 min 3,6 C 4,3 C
17.11.2011 14:00 4,8 C 93 % 1020 hPa 0,0 l/m 6,0 km/h (2 Bft) W-SW 250 0 min 11,9 klux 0 min 3,8 C 4,8 C
17.11.2011 14:16 5,2 C 93 % 1020 hPa 0,0 l/m 6,3 km/h (2 Bft) W-SW 250 0 min 12,0 klux 0 min 4,2 C 5,2 C
17.11.2011 14:30 5,5 C 92 % 1020 hPa 0,0 l/m 0,0 km/h (0 Bft) W-SW 250 0 min 8,25 klux 0 min 4,3 C 5,5 C
17.11.2011 14:45 5,6 C 92 % 1020 hPa 0,0 l/m 4,8 km/h (1 Bft) W-SW 250 0 min 6,48 klux 0 min 4,4 C 5,6 C
17.11.2011 15:00 5,6 C 91 % 1020 hPa 0,0 l/m 7,2 km/h (2 Bft) W-SW 250 0 min 4,70 klux 0 min 4,2 C 4,9 C
17.11.2011 15:15 5,2 C 91 % 1020 hPa 0,0 l/m 8,5 km/h (2 Bft) W-SW 250 0 min 3,50 klux 0 min 3,9 C 3,4 C
17.11.2011 15:30 5,1 C 92 % 1020 hPa 0,0 l/m 2,5 km/h (1 Bft) W-SW 250 0 min 2,21 klux 0 min 3,9 C 5,1 C
17.11.2011 15:46 5,1 C 93 % 1020 hPa 0,0 l/m 0,9 km/h (0 Bft) W-SW 250 0 min 2,04 klux 0 min 4,1 C 5,1 C
17.11.2011 16:00 5,1 C 93 % 1020 hPa 0,0 l/m 5,6 km/h (1 Bft) W-SW 250 0 min 1,78 klux 0 min 4,1 C 5,1 C
17.11.2011 16:15 4,9 C 93 % 1020 hPa 0,0 l/m 7,9 km/h (2 Bft) W-SW 250 0 min 1,39 klux 0 min 3,9 C 3,6 C
17.11.2011 16:30 4,8 C 93 % 1020 hPa 0,0 l/m 8,7 km/h (2 Bft) W-SW 250 0 min 751 lux 0 min 3,8 C 2,8 C
17.11.2011 16:45 4,5 C 93 % 1020 hPa 0,0 l/m 12,0 km/h (2 Bft) W-SW 250 0 min 290 lux 0 min 3,5 C 0,2 C
17.11.2011 17:00 4,2 C 93 % 1020 hPa 0,0 l/m 13,8 km/h (3 Bft) W-SW 250 0 min 173 lux 0 min 3,2 C -1,2 C
17.11.2011 17:16 3,9 C 93 % 1020 hPa 0,0 l/m 9,8 km/h (2 Bft) W-SW 250 0 min 50 lux 0 min 2,9 C 1,0 C
17.11.2011 17:30 3,8 C 94 % 1020 hPa 0,0 l/m 7,4 km/h (2 Bft) W-SW 250 0 min 12 lux 0 min 2,9 C 2,9 C
17.11.2011 17:45 3,7 C 94 % 1021 hPa 0,0 l/m 6,1 km/h (2 Bft) W-SW 250 0 min 0 lux 0 min 2,8 C 3,7 C
17.11.2011 18:00 3,6 C 94 % 1021 hPa 0,0 l/m 7,3 km/h (2 Bft) W-SW 250 0 min 0 lux 0 min 2,7 C 2,8 C
17.11.2011 18:15 3,6 C 94 % 1021 hPa 0,0 l/m 6,6 km/h (2 Bft) W-SW 250 0 min 0 lux 0 min 2,7 C 3,4 C
17.11.2011 18:30 3,7 C 95 % 1021 hPa 0,0 l/m 3,9 km/h (1 Bft) W-SW 250 0 min 0 lux 0 min 3,0 C 3,7 C
17.11.2011 18:45 3,9 C 95 % 1021 hPa 0,0 l/m 3,7 km/h (1 Bft) W-SW 250 0 min 0 lux 0 min 3,2 C 3,9 C
17.11.2011 19:00 3,9 C 95 % 1021 hPa 0,0 l/m 0,0 km/h (0 Bft) W-SW 250 0 min 0 lux 0 min 3,2 C 3,9 C
17.11.2011 19:15 3,9 C 95 % 1021 hPa 0,0 l/m 8,1 km/h (2 Bft) W-SW 250 0 min 0 lux 0 min 3,2 C 2,4 C
17.11.2011 19:30 3,8 C 96 % 1021 hPa 0,0 l/m 9,8 km/h (2 Bft) W-SW 250 0 min 0 lux 0 min 3,2 C 0,9 C
17.11.2011 19:45 3,7 C 96 % 1021 hPa 0,0 l/m 8,4 km/h (2 Bft) W-SW 250 0 min 0 lux 0 min 3,1 C 1,9 C
17.11.2011 20:00 3,6 C 96 % 1021 hPa 0,0 l/m 10,0 km/h (2 Bft) W-SW 250 0 min 0 lux 0 min 3,0 C 0,5 C
17.11.2011 20:15 3,5 C 96 % 1021 hPa 0,0 l/m 10,6 km/h (2 Bft) W-SW 245 0 min 0 lux 0 min 2,9 C -0,0 C
17.11.2011 20:30 3,4 C 96 % 1021 hPa 0,0 l/m 8,0 km/h (2 Bft) W-SW 245 0 min 0 lux 0 min 2,8 C 1,9 C
17.11.2011 20:45 3,3 C 95 % 1021 hPa 0,0 l/m 11,5 km/h (2 Bft) W-SW22.5 245 0 min 0 lux 0 min 2,6 C -0,9 C
17.11.2011 21:00 3,1 C 95 % 1022 hPa 0,0 l/m 13,5 km/h (3 Bft) W-SW 250 0 min 0 lux 0 min 2,4 C -2,4 C
17.11.2011 21:15 2,9 C 96 % 1022 hPa 0,0 l/m 15,1 km/h (3 Bft) W-SW22.5 240 0 min 0 lux 0 min 2,3 C -3,5 C
17.11.2011 21:30 2,9 C 96 % 1021 hPa 0,0 l/m 8,2 km/h (2 Bft) S-SW22.5 200 0 min 0 lux 0 min 2,3 C 1,2 C
17.11.2011 21:45 2,9 C 96 % 1021 hPa 0,0 l/m 4,8 km/h (1 Bft) S 185 0 min 0 lux 0 min 2,3 C 2,9 C
17.11.2011 22:00 2,9 C 96 % 1021 hPa 0,0 l/m 3,6 km/h (1 Bft) S 185 0 min 0 lux 0 min 2,3 C 2,9 C
17.11.2011 22:15 3,0 C 96 % 1021 hPa 0,0 l/m 3,8 km/h (1 Bft) S 185 0 min 0 lux 0 min 2,4 C 3,0 C
17.11.2011 22:30 3,1 C 97 % 1021 hPa 0,0 l/m 0,0 km/h (0 Bft) S 185 0 min 0 lux 0 min 2,7 C 3,1 C
17.11.2011 22:45 3,1 C 97 % 1021 hPa 0,0 l/m 0,0 km/h (0 Bft) S 185 0 min 0 lux 0 min 2,7 C 3,1 C
17.11.2011 23:01 3,1 C 97 % 1021 hPa 0,0 l/m 0,0 km/h (0 Bft) S 185 0 min 0 lux 0 min 2,7 C 3,1 C
17.11.2011 23:15 3,2 C 97 % 1021 hPa 0,0 l/m 0,0 km/h (0 Bft) S 185 0 min 0 lux 0 min 2,8 C 3,2 C
17.11.2011 23:30 3,3 C 97 % 1021 hPa 0,0 l/m 0,0 km/h (0 Bft) S 185 0 min 0 lux 0 min 2,9 C 3,3 C
17.11.2011 23:45 3,3 C 97 % 1021 hPa 0,0 l/m 0,0 km/h (0 Bft) S 185 0 min 0 lux 0 min 2,9 C 3,3 C
_ Min-Zeit 00:01 15:00 00:01 - 09:00 - - - - - 00:01 03:00
Minimum _ -2,7 C 91 % 1018 hPa - 0,0 km/h (0 Bft) - - - - - -3,7 C -10,7 C
_ Max-Zeit 14:45 06:15 21:00 00:01 03:00 - - 00:01 09:46 00:01 14:45 14:45
Maximum _ 5,6 C 97 % 1022 hPa 0,0 l/m 16,8 km/h
W-SW (3 Bft)
- - 0 min 21,7 klux 0 min 4,4 C 5,6 C
Durchschnitt _ 1,5 C 95 % 1020 hPa #0,0 l/m 7,8 km/h (2 Bft) W-SW - #0 min. 3,08 klux #0 min. 0,8 C -1,0 C